createdAt,value
2023-04-21T00:02:00.913Z,100.00
2023-04-21T00:04:29.789Z,100.00
2023-04-21T00:06:58.532Z,100.00
2023-04-21T00:09:27.994Z,100.00
2023-04-21T00:11:56.347Z,100.00
2023-04-21T00:14:24.310Z,100.00
2023-04-21T00:16:53.373Z,100.00
2023-04-21T00:19:21.662Z,100.00
2023-04-21T00:21:49.532Z,100.00
2023-04-21T00:24:17.460Z,100.00
2023-04-21T00:26:46.668Z,100.00
2023-04-21T00:29:14.613Z,100.00
2023-04-21T00:31:42.545Z,100.00
2023-04-21T00:34:10.798Z,100.00
2023-04-21T00:36:38.617Z,100.00
2023-04-21T00:39:07.183Z,100.00
2023-04-21T00:41:38.624Z,100.00
2023-04-21T00:44:08.976Z,100.00
2023-04-21T00:46:38.632Z,100.00
2023-04-21T00:49:08.487Z,100.00
2023-04-21T00:51:38.581Z,100.00
2023-04-21T00:54:10.454Z,100.00
2023-04-21T00:56:38.253Z,100.00
2023-04-21T00:59:07.750Z,100.00
2023-04-21T01:01:36.546Z,100.00
2023-04-21T01:04:05.954Z,100.00
2023-04-21T01:06:34.696Z,100.00
2023-04-21T01:09:05.284Z,100.00
2023-04-21T01:11:33.295Z,100.00
2023-04-21T01:14:01.547Z,100.00
2023-04-21T01:16:32.636Z,100.00
2023-04-21T01:19:01.382Z,100.00
2023-04-21T01:21:32.109Z,100.00
2023-04-21T01:24:03.838Z,100.00
2023-04-21T01:26:31.633Z,100.00
2023-04-21T01:28:59.451Z,100.00
2023-04-21T01:31:29.258Z,100.00
2023-04-21T01:33:57.113Z,100.00
2023-04-21T01:36:24.971Z,100.00
2023-04-21T01:38:53.530Z,100.00
2023-04-21T01:41:24.888Z,100.00
2023-04-21T01:43:55.510Z,100.00
2023-04-21T01:46:25.341Z,100.00
2023-04-21T01:48:53.348Z,100.00
2023-04-21T01:51:21.158Z,100.00
2023-04-21T01:53:48.942Z,100.00
2023-04-21T01:56:18.908Z,100.00
2023-04-21T01:58:48.362Z,100.00
2023-04-21T02:01:16.326Z,100.00
2023-04-21T02:03:44.292Z,100.00
2023-04-21T02:06:13.994Z,100.00
2023-04-21T02:08:41.814Z,100.00
2023-04-21T02:11:09.800Z,100.00
2023-04-21T02:13:37.653Z,100.00
2023-04-21T02:16:13.321Z,100.00
2023-04-21T02:18:42.403Z,100.00
2023-04-21T02:21:10.241Z,100.00
2023-04-21T02:23:38.038Z,100.00
2023-04-21T02:26:06.380Z,100.00
2023-04-21T02:28:34.189Z,100.00
2023-04-21T02:31:02.137Z,100.00
2023-04-21T02:33:31.442Z,100.00
2023-04-21T02:35:59.397Z,100.00
2023-04-21T02:38:27.299Z,100.00
2023-04-21T02:40:55.167Z,100.00
2023-04-21T02:43:22.991Z,100.00
2023-04-21T02:45:50.886Z,100.00
2023-04-21T02:48:22.912Z,100.00
2023-04-21T02:50:54.022Z,100.00
2023-04-21T02:53:21.976Z,100.00
2023-04-21T02:55:49.808Z,100.00
2023-04-21T02:58:17.687Z,100.00
2023-04-21T03:00:45.918Z,100.00
2023-04-21T03:03:13.900Z,100.00
2023-04-21T03:05:43.575Z,100.00
2023-04-21T03:08:12.778Z,100.00
2023-04-21T03:10:40.778Z,100.00
2023-04-21T03:13:08.592Z,100.00
2023-04-21T03:15:36.435Z,100.00
2023-04-21T03:18:04.303Z,100.00
2023-04-21T03:20:32.138Z,100.00
2023-04-21T03:22:59.969Z,100.00
2023-04-21T03:25:29.508Z,100.00
2023-04-21T03:27:57.645Z,100.00
2023-04-21T03:30:26.968Z,100.00
2023-04-21T03:32:55.743Z,100.00
2023-04-21T03:35:23.723Z,100.00
2023-04-21T03:37:51.810Z,100.00
2023-04-21T03:40:19.791Z,100.00
2023-04-21T03:42:48.970Z,100.00
2023-04-21T03:45:19.526Z,100.00
2023-04-21T03:47:47.372Z,100.00
2023-04-21T03:50:15.394Z,100.00
2023-04-21T03:52:43.178Z,100.00
2023-04-21T03:55:12.071Z,100.00
2023-04-21T03:57:41.277Z,100.00
2023-04-21T04:00:11.670Z,100.00
2023-04-21T04:02:43.823Z,100.00
2023-04-21T04:05:11.892Z,100.00
2023-04-21T04:07:39.694Z,100.00
2023-04-21T04:10:07.839Z,100.00
2023-04-21T04:12:35.635Z,100.00
2023-04-21T04:15:03.732Z,100.00
2023-04-21T04:17:32.972Z,100.00
2023-04-21T04:20:01.828Z,100.00
2023-04-21T04:22:29.663Z,100.00
2023-04-21T04:24:59.840Z,100.00
2023-04-21T04:27:29.526Z,100.00
2023-04-21T04:29:57.670Z,100.00
2023-04-21T04:32:28.615Z,100.00
2023-04-21T04:34:58.868Z,100.00
2023-04-21T04:37:26.763Z,100.00
2023-04-21T04:39:54.602Z,100.00
2023-04-21T04:42:22.448Z,100.00
2023-04-21T04:44:50.569Z,100.00
2023-04-21T04:47:18.340Z,100.00
2023-04-21T04:49:46.183Z,100.00
2023-04-21T04:52:15.514Z,100.00
2023-04-21T04:54:43.416Z,100.00
2023-04-21T04:57:11.228Z,100.00
2023-04-21T04:59:39.128Z,100.00
2023-04-21T05:02:08.581Z,100.00
2023-04-21T05:04:36.671Z,100.00
2023-04-21T05:07:06.063Z,100.00
2023-04-21T05:09:35.872Z,100.00
2023-04-21T05:12:04.025Z,100.00
2023-04-21T05:14:31.780Z,100.00
2023-04-21T05:16:59.671Z,100.00
2023-04-21T05:19:27.578Z,100.00
2023-04-21T05:22:00.693Z,100.00
2023-04-21T05:24:28.910Z,100.00
2023-04-21T05:26:58.141Z,100.00
2023-04-21T05:29:26.045Z,100.00
2023-04-21T05:31:53.950Z,100.00
2023-04-21T05:34:22.154Z,100.00
2023-04-21T05:36:50.091Z,100.00
2023-04-21T05:39:18.159Z,100.00
2023-04-21T05:41:46.094Z,100.00
2023-04-21T05:44:17.678Z,100.00
2023-04-21T05:46:45.956Z,100.00
2023-04-21T05:49:13.981Z,100.00
2023-04-21T05:51:42.378Z,100.00
2023-04-21T05:54:10.220Z,100.00
2023-04-21T05:56:38.314Z,100.00
2023-04-21T05:59:06.902Z,100.00
2023-04-21T06:01:37.474Z,100.00
2023-04-21T06:04:05.624Z,100.00
2023-04-21T06:06:33.849Z,100.00
2023-04-21T06:09:01.989Z,100.00
2023-04-21T06:11:29.730Z,100.00
2023-04-21T06:13:59.468Z,100.00
2023-04-21T06:16:27.913Z,100.00
2023-04-21T06:18:58.901Z,100.00
2023-04-21T06:21:26.895Z,100.00
2023-04-21T06:23:54.750Z,100.00
2023-04-21T06:26:22.732Z,100.00
2023-04-21T06:28:50.657Z,100.00
2023-04-21T06:31:19.816Z,100.00
2023-04-21T06:33:47.807Z,99.05
2023-04-21T06:36:18.102Z,98.65
2023-04-21T06:38:46.348Z,97.60
2023-04-21T06:41:14.104Z,97.46
2023-04-21T06:43:42.095Z,97.97
2023-04-21T06:46:09.936Z,97.47
2023-04-21T06:48:37.694Z,99.45
2023-04-21T06:51:05.804Z,99.78
2023-04-21T06:53:35.183Z,99.09
2023-04-21T06:56:03.060Z,99.12
2023-04-21T06:58:30.826Z,98.02
2023-04-21T07:00:58.659Z,98.28
2023-04-21T07:03:26.579Z,97.00
2023-04-21T07:05:54.518Z,97.28
2023-04-21T07:08:22.366Z,94.45
2023-04-21T07:10:51.530Z,94.29
2023-04-21T07:13:19.569Z,94.38
2023-04-21T07:15:47.534Z,94.17
2023-04-21T07:18:15.481Z,94.73
2023-04-21T07:20:43.425Z,93.26
2023-04-21T07:23:11.251Z,91.75
2023-04-21T07:25:39.153Z,91.66
2023-04-21T07:28:08.295Z,91.06
2023-04-21T07:30:37.133Z,89.40
2023-04-21T07:33:05.114Z,90.21
2023-04-21T07:35:32.927Z,90.54
2023-04-21T07:38:00.761Z,88.31
2023-04-21T07:40:28.799Z,88.41
2023-04-21T07:42:56.792Z,89.40
2023-04-21T07:45:26.427Z,87.90
2023-04-21T07:47:54.762Z,86.37
2023-04-21T07:50:22.590Z,86.58
2023-04-21T07:52:50.596Z,83.90
2023-04-21T07:55:18.510Z,85.64
2023-04-21T07:57:46.336Z,84.31
2023-04-21T08:00:15.872Z,83.63
2023-04-21T08:02:45.087Z,82.27
2023-04-21T08:05:13.316Z,81.66
2023-04-21T08:07:41.143Z,81.66
2023-04-21T08:10:10.326Z,82.67
2023-04-21T08:12:40.169Z,81.03
2023-04-21T08:15:08.813Z,81.22
2023-04-21T08:17:36.642Z,79.62
2023-04-21T08:20:06.988Z,78.69
2023-04-21T08:22:35.813Z,80.31
2023-04-21T08:25:03.882Z,79.99
2023-04-21T08:27:31.633Z,79.85
2023-04-21T08:30:00.228Z,78.76
2023-04-21T08:32:28.106Z,77.45
2023-04-21T08:34:56.163Z,76.20
2023-04-21T08:37:25.667Z,76.02
2023-04-21T08:39:54.434Z,76.66
2023-04-21T08:42:22.308Z,76.35
2023-04-21T08:44:50.287Z,73.81
2023-04-21T08:47:18.386Z,72.56
2023-04-21T08:49:46.383Z,72.31
2023-04-21T08:52:14.773Z,72.24
2023-04-21T08:54:44.236Z,70.37
2023-04-21T08:57:15.923Z,70.70
2023-04-21T08:59:46.083Z,69.75
2023-04-21T09:02:16.235Z,68.70
2023-04-21T09:04:46.444Z,70.84
2023-04-21T09:07:30.743Z,69.62
2023-04-21T09:10:01.324Z,69.43
2023-04-21T09:12:30.412Z,67.44
2023-04-21T09:14:59.137Z,67.51
2023-04-21T09:17:32.659Z,67.83
2023-04-21T09:20:14.598Z,67.62
2023-04-21T09:22:42.551Z,67.83
2023-04-21T09:25:16.696Z,66.99
2023-04-21T09:27:45.061Z,66.47
2023-04-21T09:30:13.532Z,64.20
2023-04-21T09:32:41.766Z,66.10
2023-04-21T09:35:11.929Z,66.10
2023-04-21T09:37:40.334Z,65.96
2023-04-21T09:40:08.949Z,65.43
2023-04-21T09:42:39.632Z,64.61
2023-04-21T09:45:28.932Z,64.44
2023-04-21T09:48:00.441Z,62.23
2023-04-21T09:50:44.782Z,62.39
2023-04-21T09:53:22.807Z,62.40
2023-04-21T09:55:56.356Z,61.82
2023-04-21T09:58:29.148Z,63.75
2023-04-21T10:00:58.431Z,61.86
2023-04-21T10:03:28.860Z,61.78
2023-04-21T10:05:57.418Z,62.15
2023-04-21T10:08:25.284Z,62.25
2023-04-21T10:10:54.428Z,62.29
2023-04-21T10:13:23.434Z,61.16
2023-04-21T10:16:03.056Z,61.36
2023-04-21T10:18:30.957Z,60.88
2023-04-21T10:21:02.821Z,61.19
2023-04-21T10:23:32.154Z,60.30
2023-04-21T10:26:04.593Z,60.15
2023-04-21T10:28:41.244Z,59.91
2023-04-21T10:31:31.423Z,58.42
2023-04-21T10:34:30.466Z,57.96
2023-04-21T10:37:18.931Z,56.97
2023-04-21T10:39:53.761Z,56.17
2023-04-21T10:42:24.640Z,59.60
2023-04-21T10:44:54.644Z,55.93
2023-04-21T10:47:34.358Z,56.49
2023-04-21T10:50:13.179Z,54.66
2023-04-21T10:52:44.419Z,53.25
2023-04-21T10:55:13.322Z,51.93
2023-04-21T10:57:43.910Z,53.46
2023-04-21T11:00:15.605Z,49.14
2023-04-21T11:02:45.381Z,51.61
2023-04-21T11:05:14.084Z,50.71
2023-04-21T11:07:41.984Z,50.79
2023-04-21T11:10:11.383Z,51.55
2023-04-21T11:12:40.801Z,49.56
2023-04-21T11:15:10.761Z,49.71
2023-04-21T11:17:39.949Z,49.25
2023-04-21T11:20:10.533Z,47.97
2023-04-21T11:22:39.058Z,46.61
2023-04-21T11:25:17.505Z,47.23
2023-04-21T11:27:54.859Z,46.12
2023-04-21T11:30:23.277Z,43.66
2023-04-21T11:32:56.037Z,40.60
2023-04-21T11:35:25.905Z,40.74
2023-04-21T11:37:53.777Z,39.70
2023-04-21T11:40:23.059Z,38.56
2023-04-21T11:42:51.628Z,38.47
2023-04-21T11:45:22.427Z,38.91
2023-04-21T11:47:51.010Z,38.84
2023-04-21T11:50:33.191Z,38.79
2023-04-21T11:53:03.506Z,39.25
2023-04-21T11:55:31.395Z,37.60
2023-04-21T11:57:59.356Z,37.72
2023-04-21T12:00:31.921Z,39.00
2023-04-21T12:02:59.925Z,39.02
2023-04-21T12:05:37.958Z,38.67
2023-04-21T12:08:06.376Z,38.55
2023-04-21T12:10:34.323Z,38.64
2023-04-21T12:13:02.060Z,37.69
2023-04-21T12:15:32.140Z,38.27
2023-04-21T12:18:00.125Z,39.07
2023-04-21T12:20:31.166Z,39.63
2023-04-21T12:23:01.142Z,38.51
2023-04-21T12:25:29.248Z,37.74
2023-04-21T12:27:59.925Z,37.56
2023-04-21T12:30:27.893Z,37.28
2023-04-21T12:32:55.971Z,37.63
2023-04-21T12:35:23.976Z,36.82
2023-04-21T12:37:51.908Z,37.19
2023-04-21T12:40:21.171Z,38.30
2023-04-21T12:42:49.638Z,37.26
2023-04-21T12:45:17.590Z,37.55
2023-04-21T12:47:46.891Z,36.33
2023-04-21T12:50:15.197Z,37.78
2023-04-21T12:52:43.034Z,37.61
2023-04-21T12:55:13.342Z,37.44
2023-04-21T12:57:42.357Z,36.81
2023-04-21T13:00:14.766Z,37.84
2023-04-21T13:02:42.838Z,36.37
2023-04-21T13:05:12.720Z,35.92
2023-04-21T13:07:41.563Z,36.36
2023-04-21T13:10:10.201Z,35.74
2023-04-21T13:12:38.367Z,35.31
2023-04-21T13:15:09.137Z,35.49
2023-04-21T13:17:37.079Z,36.16
2023-04-21T13:20:07.248Z,36.02
2023-04-21T13:22:35.645Z,37.46
2023-04-21T13:25:04.523Z,36.60
2023-04-21T13:27:33.386Z,36.89
2023-04-21T13:30:01.407Z,36.78
2023-04-21T13:32:30.650Z,36.20
2023-04-21T13:34:58.480Z,37.11
2023-04-21T13:37:26.929Z,36.20
2023-04-21T13:39:54.722Z,36.26
2023-04-21T13:42:22.589Z,35.99
2023-04-21T13:44:50.481Z,36.84
2023-04-21T13:47:18.346Z,35.95
2023-04-21T13:49:47.530Z,35.95
2023-04-21T13:52:15.336Z,36.02
2023-04-21T13:54:43.283Z,36.15
2023-04-21T13:57:11.344Z,36.16
2023-04-21T13:59:39.445Z,36.69
2023-04-21T14:02:07.979Z,36.13
2023-04-21T14:04:36.556Z,36.28
2023-04-21T14:07:07.984Z,35.93
2023-04-21T14:09:36.030Z,36.46
2023-04-21T14:12:04.374Z,36.07
2023-04-21T14:17:05.665Z,36.77
2023-04-21T14:19:33.998Z,36.64
2023-04-21T14:22:02.112Z,37.28
2023-04-21T14:24:32.363Z,37.78
2023-04-21T14:27:01.103Z,36.95
2023-04-21T14:29:28.987Z,37.64
2023-04-21T14:31:58.605Z,38.45
2023-04-21T14:34:26.833Z,38.30
2023-04-21T14:36:55.195Z,37.89
2023-04-21T14:39:23.277Z,38.26
2023-04-21T14:41:53.338Z,38.86
2023-04-21T14:44:21.329Z,38.88
2023-04-21T14:47:01.008Z,37.94
2023-04-21T14:49:34.171Z,38.13
2023-04-21T14:52:03.533Z,38.67
2023-04-21T14:54:31.567Z,37.19
2023-04-21T14:57:17.422Z,37.71
2023-04-21T14:59:47.455Z,37.25
2023-04-21T15:02:15.665Z,38.57
2023-04-21T15:04:43.770Z,38.50
2023-04-21T15:07:11.767Z,38.54
2023-04-21T15:09:41.079Z,38.53
2023-04-21T15:12:12.717Z,38.78
2023-04-21T15:14:40.647Z,38.22
2023-04-21T15:17:08.715Z,36.97
2023-04-21T15:19:36.739Z,37.89
2023-04-21T15:22:05.804Z,37.21
2023-04-21T15:24:33.568Z,37.71
2023-04-21T15:27:02.245Z,37.61
2023-04-21T15:29:31.448Z,38.53
2023-04-21T15:31:59.298Z,38.58
2023-04-21T15:34:27.084Z,39.26
2023-04-21T15:36:54.922Z,38.88
2023-04-21T15:39:22.746Z,38.98
2023-04-21T15:41:50.800Z,39.31
2023-04-21T15:44:18.771Z,39.83
2023-04-21T15:46:48.229Z,40.54
2023-04-21T15:49:16.068Z,40.64
2023-04-21T15:51:44.080Z,39.66
2023-04-21T15:54:12.061Z,39.52
2023-04-21T15:56:40.311Z,39.13
2023-04-21T15:59:08.118Z,39.19
2023-04-21T16:01:36.092Z,39.88
2023-04-21T16:04:06.358Z,40.45
2023-04-21T16:06:34.936Z,40.69
2023-04-21T16:09:03.314Z,39.77
2023-04-21T16:11:31.108Z,39.06
2023-04-21T16:13:59.074Z,39.50
2023-04-21T16:16:27.034Z,40.26
2023-04-21T16:18:55.094Z,40.87
2023-04-21T16:21:24.389Z,40.22
2023-04-21T16:23:52.262Z,40.79
2023-04-21T16:26:20.200Z,41.07
2023-04-21T16:28:48.140Z,39.73
2023-04-21T16:31:16.249Z,39.87
2023-04-21T16:33:44.069Z,40.20
2023-04-21T16:36:12.038Z,40.37
2023-04-21T16:38:41.268Z,40.69
2023-04-21T16:41:09.241Z,40.75
2023-04-21T16:43:37.387Z,40.11
2023-04-21T16:46:05.295Z,40.64
2023-04-21T16:48:33.257Z,39.74
2023-04-21T16:51:01.147Z,40.11
2023-04-21T16:53:29.011Z,40.34
2023-04-21T16:55:58.506Z,39.68
2023-04-21T16:58:26.458Z,39.55
2023-04-21T17:00:54.327Z,39.57
2023-04-21T17:03:22.590Z,40.23
2023-04-21T17:05:50.732Z,40.20
2023-04-21T17:08:18.597Z,39.85
2023-04-21T17:10:46.484Z,40.47
2023-04-21T17:13:15.615Z,40.31
2023-04-21T17:15:43.514Z,41.44
2023-04-21T17:18:11.523Z,41.07
2023-04-21T17:20:39.536Z,40.88
2023-04-21T17:23:07.500Z,41.36
2023-04-21T17:25:38.098Z,41.51
2023-04-21T17:28:06.437Z,41.07
2023-04-21T17:30:36.343Z,41.23
2023-04-21T17:33:16.121Z,41.00
2023-04-21T17:35:56.193Z,40.58
2023-04-21T17:38:29.871Z,40.95
2023-04-21T17:40:57.676Z,41.16
2023-04-21T17:43:25.566Z,41.05
2023-04-21T17:45:54.802Z,40.90
2023-04-21T17:48:22.655Z,40.95
2023-04-21T17:50:50.635Z,41.26
2023-04-21T17:53:18.895Z,41.58
2023-04-21T17:55:46.739Z,41.70
2023-04-21T17:58:14.678Z,42.39
2023-04-21T18:00:42.569Z,42.85
2023-04-21T18:03:11.943Z,42.62
2023-04-21T18:05:40.672Z,43.17
2023-04-21T18:08:08.761Z,43.29
2023-04-21T18:10:37.324Z,43.11
2023-04-21T18:13:06.128Z,43.14
2023-04-21T18:15:34.129Z,43.11
2023-04-21T18:18:02.120Z,43.38
2023-04-21T18:20:31.491Z,43.23
2023-04-21T18:22:59.500Z,43.74
2023-04-21T18:25:41.512Z,43.66
2023-04-21T18:28:12.399Z,44.62
2023-04-21T18:30:40.561Z,44.54
2023-04-21T18:33:08.523Z,44.44
2023-04-21T18:35:38.110Z,44.96
2023-04-21T18:38:08.006Z,45.08
2023-04-21T18:40:37.038Z,44.67
2023-04-21T18:43:05.256Z,44.65
2023-04-21T18:45:33.915Z,45.07
2023-04-21T18:48:01.921Z,44.84
2023-04-21T18:50:30.172Z,45.20
2023-04-21T18:52:59.926Z,45.36
2023-04-21T18:55:27.747Z,45.75
2023-04-21T18:57:55.609Z,45.47
2023-04-21T19:00:23.899Z,45.31
2023-04-21T19:02:52.116Z,45.44
2023-04-21T19:05:20.463Z,45.82
2023-04-21T19:07:48.510Z,46.80
2023-04-21T19:10:18.302Z,47.00
2023-04-21T19:12:46.099Z,47.35
2023-04-21T19:15:14.084Z,46.99
2023-04-21T19:17:42.179Z,46.81
2023-04-21T19:20:11.271Z,47.05
2023-04-21T19:22:39.302Z,47.11
2023-04-21T19:25:08.584Z,47.42
2023-04-21T19:27:38.136Z,47.54
2023-04-21T19:30:07.102Z,48.84
2023-04-21T19:32:35.094Z,51.37
2023-04-21T19:35:02.948Z,53.98
2023-04-21T19:37:33.532Z,56.06
2023-04-21T19:40:03.179Z,57.27
2023-04-21T19:42:31.525Z,58.76
2023-04-21T19:45:00.731Z,58.67
2023-04-21T19:47:28.494Z,59.40
2023-04-21T19:49:56.460Z,60.13
2023-04-21T19:52:24.336Z,60.70
2023-04-21T19:54:52.531Z,61.85
2023-04-21T19:57:20.564Z,61.90
2023-04-21T19:59:49.024Z,61.81
2023-04-21T20:02:19.457Z,62.56
2023-04-21T20:04:48.743Z,63.43
2023-04-21T20:07:17.473Z,64.25
2023-04-21T20:09:45.469Z,65.08
2023-04-21T20:12:13.263Z,66.26
2023-04-21T20:14:41.131Z,65.93
2023-04-21T20:17:08.982Z,66.09
2023-04-21T20:19:40.576Z,64.79
2023-04-21T20:22:08.672Z,64.40
2023-04-21T20:24:36.555Z,64.87
2023-04-21T20:27:07.190Z,65.66
2023-04-21T20:29:36.746Z,64.74
2023-04-21T20:32:04.816Z,65.34
2023-04-21T20:34:32.741Z,65.66
2023-04-21T20:37:03.830Z,66.29
2023-04-21T20:39:31.661Z,66.13
2023-04-21T20:42:11.926Z,66.32
2023-04-21T20:44:42.498Z,65.46
2023-04-21T20:47:11.465Z,65.58
2023-04-21T20:49:39.979Z,57.62
2023-04-21T20:52:09.695Z,53.38
2023-04-21T20:54:38.282Z,50.96
2023-04-21T20:57:07.337Z,50.45
2023-04-21T20:59:35.559Z,51.02
2023-04-21T21:02:03.625Z,51.00
2023-04-21T21:04:31.653Z,49.93
2023-04-21T21:06:59.781Z,49.89
2023-04-21T21:09:29.037Z,50.44
2023-04-21T21:11:56.862Z,49.03
2023-04-21T21:14:24.735Z,48.79
2023-04-21T21:16:54.507Z,48.83
2023-04-21T21:19:22.424Z,48.47
2023-04-21T21:21:50.155Z,48.82
2023-04-21T21:24:17.986Z,48.61
2023-04-21T21:26:47.132Z,48.51
2023-04-21T21:29:14.986Z,48.18
2023-04-21T21:31:43.207Z,48.16
2023-04-21T21:34:11.117Z,48.30
2023-04-21T21:36:38.906Z,48.28
2023-04-21T21:39:09.594Z,49.12
2023-04-21T21:41:38.932Z,48.53
2023-04-21T21:44:08.754Z,48.42
2023-04-21T21:46:36.759Z,47.91
2023-04-21T21:49:04.787Z,48.07
2023-04-21T21:51:32.698Z,48.03
2023-04-21T21:54:00.615Z,48.42
2023-04-21T21:56:28.587Z,48.46
2023-04-21T21:58:56.462Z,49.00
2023-04-21T22:01:25.882Z,48.53
2023-04-21T22:03:54.187Z,48.49
2023-04-21T22:06:24.382Z,48.62
2023-04-21T22:08:52.723Z,48.78
2023-04-21T22:11:20.806Z,48.97
2023-04-21T22:13:48.689Z,49.05
2023-04-21T22:16:16.909Z,48.83
2023-04-21T22:18:47.277Z,49.10
2023-04-21T22:21:14.948Z,49.30
2023-04-21T22:23:42.745Z,49.51
2023-04-21T22:26:10.709Z,49.81
2023-04-21T22:28:38.553Z,50.01
2023-04-21T22:31:06.742Z,50.27
2023-04-21T22:33:34.664Z,50.75
2023-04-21T22:36:03.838Z,51.11
2023-04-21T22:38:31.713Z,51.29
2023-04-21T22:40:59.508Z,52.21
2023-04-21T22:43:27.448Z,52.44
2023-04-21T22:45:55.520Z,51.94
2023-04-21T22:48:26.163Z,52.25
2023-04-21T22:50:54.355Z,51.86
2023-04-21T22:53:23.583Z,52.84
2023-04-21T22:55:51.504Z,53.15
2023-04-21T22:58:19.900Z,53.58
2023-04-21T23:00:47.803Z,54.75
2023-04-21T23:03:16.028Z,53.35
2023-04-21T23:05:43.956Z,53.87
2023-04-21T23:08:11.848Z,54.45
2023-04-21T23:10:41.471Z,54.80
2023-04-21T23:13:09.622Z,54.47
2023-04-21T23:15:37.555Z,54.49
2023-04-21T23:18:05.559Z,54.39
2023-04-21T23:20:33.734Z,53.92
2023-04-21T23:23:01.615Z,53.42
2023-04-21T23:25:29.591Z,53.85
2023-04-21T23:27:58.752Z,53.39
2023-04-21T23:30:26.700Z,54.34
2023-04-21T23:32:54.820Z,55.41
2023-04-21T23:35:22.843Z,54.43
2023-04-21T23:37:50.576Z,54.56
2023-04-21T23:40:18.614Z,54.42
2023-04-21T23:42:47.475Z,55.27
2023-04-21T23:45:17.097Z,55.59
2023-04-21T23:47:45.541Z,56.20
2023-04-21T23:50:13.589Z,56.98
2023-04-21T23:52:42.109Z,58.12
2023-04-21T23:55:11.847Z,58.20
2023-04-21T23:57:39.833Z,59.29
